Martin, Utah
Current Conditions -  °F | °C
As of 9:53 AM on Thursday 30 Oct 2014 (Local Time) from KPUC Reporting Station
Clear Clear  
Wind Chill: 50°   Ceiling: Unl
Heat Index: 50°   Visibility: 10mi
Dew Point: 17°   Wind: 0mph
Humidity: 27%   Direction: NA
Pressure: 30.37"   Gusts: NA
Location:  39.7304°N, 110.917°W
Report Text: KPUC 301553Z AUTO 00000KT 10SM CLR 10/M08 A3037 RMK AO2 SLP279 T01001083 TSNO
Loading
Personal Weather Stations






























Interactive Weather Map
Tropical Storm Tracking
New forecast layout! Learn more

10-Day Weather Forecast

Advertisements
Track Severe Weather on mobile